createdAt,value
2023-05-09T00:00:33.557Z,96.19
2023-05-09T00:01:33.572Z,95.82
2023-05-09T00:02:33.579Z,95.88
2023-05-09T00:03:33.556Z,96.13
2023-05-09T00:04:33.571Z,95.92
2023-05-09T00:05:33.553Z,95.72
2023-05-09T00:06:33.629Z,95.92
2023-05-09T00:07:33.520Z,96.48
2023-05-09T00:08:33.492Z,96.23
2023-05-09T00:09:33.504Z,96.48
2023-05-09T00:10:33.495Z,96.48
2023-05-09T00:11:33.495Z,97.50
2023-05-09T00:12:33.530Z,97.50
2023-05-09T00:13:33.503Z,97.40
2023-05-09T00:14:33.613Z,98.22
2023-05-09T00:15:33.462Z,98.02
2023-05-09T00:16:33.467Z,97.40
2023-05-09T00:17:33.498Z,97.61
2023-05-09T00:18:33.422Z,97.61
2023-05-09T00:19:33.489Z,97.71
2023-05-09T00:20:33.415Z,96.89
2023-05-09T00:21:33.446Z,97.50
2023-05-09T00:22:33.489Z,97.40
2023-05-09T00:23:33.420Z,97.97
2023-05-09T00:24:33.388Z,97.87
2023-05-09T00:25:33.450Z,97.30
2023-05-09T00:26:33.410Z,97.50
2023-05-09T00:27:33.387Z,97.40
2023-05-09T00:28:33.365Z,97.61
2023-05-09T00:29:33.366Z,96.89
2023-05-09T00:30:33.372Z,97.45
2023-05-09T00:31:33.390Z,97.50
2023-05-09T00:32:33.418Z,97.45
2023-05-09T00:33:33.398Z,97.91
2023-05-09T00:34:33.330Z,97.20
2023-05-09T00:35:33.350Z,97.55
2023-05-09T00:36:33.313Z,97.45
2023-05-09T00:37:33.323Z,97.45
2023-05-09T00:38:33.385Z,97.55
2023-05-09T00:39:33.327Z,97.86
2023-05-09T00:40:33.275Z,97.75
2023-05-09T00:41:33.298Z,98.12
2023-05-09T00:42:33.283Z,97.65
2023-05-09T00:43:33.301Z,97.45
2023-05-09T00:44:33.302Z,97.45
2023-05-09T00:45:33.278Z,97.55
2023-05-09T00:46:33.277Z,97.55
2023-05-09T00:47:33.416Z,98.21
2023-05-09T00:48:33.262Z,98.16
2023-05-09T00:49:33.282Z,97.86
2023-05-09T00:50:33.239Z,98.42
2023-05-09T00:51:33.244Z,98.47
2023-05-09T00:52:33.238Z,98.21
2023-05-09T00:53:33.286Z,98.07
2023-05-09T00:54:33.286Z,97.96
2023-05-09T00:55:33.241Z,97.75
2023-05-09T00:56:33.176Z,98.37
2023-05-09T00:57:33.196Z,98.33
2023-05-09T00:58:33.192Z,98.27
2023-05-09T00:59:33.185Z,98.16
2023-05-09T01:00:33.178Z,98.27
2023-05-09T01:01:33.235Z,98.27
2023-05-09T01:02:33.264Z,98.11
2023-05-09T01:03:33.234Z,98.00
2023-05-09T01:04:33.142Z,98.16
2023-05-09T01:05:33.207Z,97.96
2023-05-09T01:06:33.124Z,98.11
2023-05-09T01:07:33.148Z,97.75
2023-05-09T01:08:33.109Z,97.96
2023-05-09T01:09:33.112Z,97.96
2023-05-09T01:10:33.199Z,97.65
2023-05-09T01:11:33.129Z,97.30
2023-05-09T01:12:33.086Z,97.61
2023-05-09T01:13:33.120Z,97.61
2023-05-09T01:14:33.088Z,97.81
2023-05-09T01:15:33.134Z,97.40
2023-05-09T01:16:33.060Z,97.30
2023-05-09T01:17:33.114Z,97.55
2023-05-09T01:18:33.082Z,97.45
2023-05-09T01:19:33.102Z,97.45
2023-05-09T01:20:33.027Z,98.37
2023-05-09T01:21:33.059Z,98.16
2023-05-09T01:22:33.026Z,98.21
2023-05-09T01:23:33.031Z,98.27
2023-05-09T01:24:33.019Z,98.00
2023-05-09T01:25:33.048Z,98.37
2023-05-09T01:26:33.089Z,98.42
2023-05-09T01:27:33.009Z,98.32
2023-05-09T01:28:32.987Z,98.21
2023-05-09T01:29:33.018Z,98.62
2023-05-09T01:30:32.987Z,98.93
2023-05-09T01:31:33.006Z,99.03
2023-05-09T01:32:32.977Z,98.72
2023-05-09T01:33:32.976Z,98.83
2023-05-09T01:34:32.951Z,98.62
2023-05-09T01:35:32.967Z,98.52
2023-05-09T01:36:32.962Z,98.42
2023-05-09T01:37:33.008Z,98.83
2023-05-09T01:38:32.924Z,98.72
2023-05-09T01:39:32.936Z,98.62
2023-05-09T01:40:32.893Z,98.72
2023-05-09T01:41:32.931Z,98.83
2023-05-09T01:42:33.011Z,98.83
2023-05-09T01:43:32.897Z,98.42
2023-05-09T01:44:32.875Z,98.42
2023-05-09T01:45:32.921Z,98.57
2023-05-09T01:46:32.874Z,98.36
2023-05-09T01:47:32.893Z,99.08
2023-05-09T01:48:32.849Z,99.18
2023-05-09T01:49:32.862Z,99.99
2023-05-09T01:50:32.824Z,99.90
2023-05-09T01:51:32.842Z,99.28
2023-05-09T01:52:32.835Z,99.28
2023-05-09T01:53:32.824Z,99.38
2023-05-09T01:54:32.797Z,98.97
2023-05-09T01:55:32.823Z,98.97
2023-05-09T01:56:32.787Z,99.18
2023-05-09T01:57:32.792Z,99.18
2023-05-09T01:58:32.877Z,98.93
2023-05-09T01:59:32.790Z,98.62
2023-05-09T02:00:32.753Z,98.46
2023-05-09T02:01:32.764Z,98.83
2023-05-09T02:02:32.816Z,99.18
2023-05-09T02:03:32.791Z,98.72
2023-05-09T02:04:32.735Z,98.42
2023-05-09T02:05:32.725Z,98.21
2023-05-09T02:06:32.760Z,98.11
2023-05-09T02:07:32.767Z,98.32
2023-05-09T02:08:32.718Z,98.72
2023-05-09T02:09:32.742Z,98.16
2023-05-09T02:10:32.686Z,97.91
2023-05-09T02:11:32.725Z,98.00
2023-05-09T02:12:32.694Z,98.00
2023-05-09T02:13:32.695Z,98.11
2023-05-09T02:14:32.777Z,98.07
2023-05-09T02:15:33.072Z,98.58
2023-05-09T02:16:32.681Z,98.42
2023-05-09T02:17:32.659Z,98.42
2023-05-09T02:18:32.750Z,98.37
2023-05-09T02:19:32.651Z,98.37
2023-05-09T02:20:32.634Z,98.27
2023-05-09T02:21:32.670Z,97.96
2023-05-09T02:22:32.606Z,97.45
2023-05-09T02:23:32.611Z,97.91
2023-05-09T02:24:32.594Z,98.11
2023-05-09T02:25:32.611Z,98.21
2023-05-09T02:26:32.599Z,98.21
2023-05-09T02:27:32.609Z,97.49
2023-05-09T02:28:32.562Z,97.19
2023-05-09T02:29:32.573Z,97.49
2023-05-09T02:30:32.667Z,97.64
2023-05-09T02:31:32.602Z,98.05
2023-05-09T02:32:32.624Z,98.46
2023-05-09T02:33:32.546Z,98.92
2023-05-09T02:34:32.519Z,99.99
2023-05-09T02:35:32.582Z,99.99
2023-05-09T02:36:32.521Z,99.33
2023-05-09T02:37:32.624Z,99.99
2023-05-09T02:38:32.526Z,99.99
2023-05-09T02:39:32.518Z,99.79
2023-05-09T02:40:32.502Z,99.74
2023-05-09T02:41:32.503Z,99.99
2023-05-09T02:42:32.491Z,99.99
2023-05-09T02:43:32.505Z,99.99
2023-05-09T02:44:32.452Z,99.99
2023-05-09T02:45:32.467Z,99.99
2023-05-09T02:46:32.616Z,99.99
2023-05-09T02:47:32.471Z,99.99
2023-05-09T02:48:32.427Z,99.99
2023-05-09T02:49:32.897Z,98.96
2023-05-09T02:50:32.436Z,99.99
2023-05-09T02:51:32.446Z,99.79
2023-05-09T02:52:32.419Z,99.99
2023-05-09T02:53:32.410Z,99.99
2023-05-09T02:54:32.387Z,99.73
2023-05-09T02:55:32.391Z,99.99
2023-05-09T02:56:32.411Z,99.99
2023-05-09T02:57:32.407Z,99.99
2023-05-09T02:58:32.369Z,99.99
2023-05-09T02:59:32.382Z,99.99
2023-05-09T03:00:32.400Z,99.99
2023-05-09T03:01:32.424Z,99.99
2023-05-09T03:02:32.532Z,99.99
2023-05-09T03:03:32.421Z,99.99
2023-05-09T03:04:32.352Z,99.99
2023-05-09T03:05:32.360Z,99.99
2023-05-09T03:06:32.307Z,99.99
2023-05-09T03:07:32.351Z,99.99
2023-05-09T03:08:32.341Z,99.99
2023-05-09T03:09:32.309Z,99.99
2023-05-09T03:10:32.294Z,99.99
2023-05-09T03:11:32.336Z,99.99
2023-05-09T03:12:32.306Z,99.99
2023-05-09T03:13:32.280Z,99.99
2023-05-09T03:14:32.287Z,99.99
2023-05-09T03:15:32.285Z,99.99
2023-05-09T03:16:32.273Z,99.99
2023-05-09T03:17:32.318Z,99.99
2023-05-09T03:18:32.335Z,99.99
2023-05-09T03:19:32.255Z,99.99
2023-05-09T03:20:32.229Z,99.99
2023-05-09T03:21:32.251Z,99.99
2023-05-09T03:22:32.212Z,99.99
2023-05-09T03:23:32.263Z,99.99
2023-05-09T03:24:32.218Z,99.99
2023-05-09T03:25:32.593Z,99.99
2023-05-09T03:26:32.201Z,99.99
2023-05-09T03:27:32.198Z,99.99
2023-05-09T03:28:32.178Z,99.99
2023-05-09T03:29:32.188Z,99.99
2023-05-09T03:30:32.197Z,99.99
2023-05-09T03:31:32.256Z,99.99
2023-05-09T03:32:32.200Z,99.99
2023-05-09T03:33:32.170Z,99.99
2023-05-09T03:34:32.238Z,99.99
2023-05-09T03:35:32.215Z,99.99
2023-05-09T03:36:32.165Z,99.99
2023-05-09T03:37:32.167Z,99.99
2023-05-09T03:38:32.208Z,99.99
2023-05-09T03:39:32.122Z,99.99
2023-05-09T03:40:32.118Z,99.99
2023-05-09T03:41:32.134Z,99.99
2023-05-09T03:42:32.143Z,99.99
2023-05-09T03:43:32.127Z,99.99
2023-05-09T03:44:32.094Z,99.99
2023-05-09T03:45:32.093Z,99.99
2023-05-09T03:46:32.176Z,99.99
2023-05-09T03:47:32.142Z,99.99
2023-05-09T03:48:32.078Z,99.99
2023-05-09T03:49:32.055Z,99.99
2023-05-09T03:50:32.124Z,99.99
2023-05-09T03:51:32.055Z,99.99
2023-05-09T03:52:32.057Z,99.99
2023-05-09T03:53:32.081Z,99.99
2023-05-09T03:54:32.015Z,99.99
2023-05-09T03:55:32.054Z,99.99
2023-05-09T03:56:32.022Z,99.99
2023-05-09T03:57:32.063Z,99.99
2023-05-09T03:58:32.010Z,99.99
2023-05-09T03:59:32.007Z,99.99
2023-05-09T04:00:32.001Z,99.99
2023-05-09T04:01:32.018Z,99.99
2023-05-09T04:02:32.128Z,99.99
2023-05-09T04:03:32.141Z,99.99
2023-05-09T04:04:31.955Z,99.99
2023-05-09T04:05:32.053Z,99.99
2023-05-09T04:06:32.044Z,99.99
2023-05-09T04:07:31.992Z,99.99
2023-05-09T04:08:31.931Z,99.99
2023-05-09T04:09:31.951Z,99.99
2023-05-09T04:10:31.926Z,99.99
2023-05-09T04:11:31.951Z,99.89
2023-05-09T04:12:31.924Z,99.02
2023-05-09T04:13:31.979Z,98.41
2023-05-09T04:14:31.912Z,97.54
2023-05-09T04:15:31.913Z,96.67
2023-05-09T04:16:31.918Z,96.01
2023-05-09T04:17:31.905Z,94.43
2023-05-09T04:18:31.891Z,93.51
2023-05-09T04:19:31.927Z,92.14
2023-05-09T04:20:31.848Z,90.66
2023-05-09T04:21:31.879Z,89.39
2023-05-09T04:22:31.936Z,88.78
2023-05-09T04:23:31.857Z,88.49
2023-05-09T04:24:31.851Z,87.73
2023-05-09T04:25:31.851Z,86.16
2023-05-09T04:26:31.811Z,84.94
2023-05-09T04:27:31.819Z,84.69
2023-05-09T04:28:31.827Z,84.66
2023-05-09T04:29:31.792Z,84.61
2023-05-09T04:30:31.816Z,83.90
2023-05-09T04:31:31.832Z,84.51
2023-05-09T04:32:31.850Z,83.86
2023-05-09T04:33:31.768Z,83.65
2023-05-09T04:34:31.770Z,83.39
2023-05-09T04:35:31.761Z,84.45
2023-05-09T04:36:31.735Z,84.96
2023-05-09T04:37:31.775Z,84.61
2023-05-09T04:38:31.856Z,83.09
2023-05-09T04:39:31.719Z,83.12
2023-05-09T04:40:31.714Z,82.82
2023-05-09T04:41:31.729Z,82.98
2023-05-09T04:42:31.690Z,81.93
2023-05-09T04:43:31.733Z,81.13
2023-05-09T04:44:31.687Z,79.88
2023-05-09T04:45:31.708Z,79.03
2023-05-09T04:46:31.692Z,79.68
2023-05-09T04:47:31.694Z,78.59
2023-05-09T04:48:31.705Z,77.17
2023-05-09T04:49:31.759Z,77.57
2023-05-09T04:50:31.655Z,75.67
2023-05-09T04:51:31.755Z,74.58
2023-05-09T04:52:31.649Z,74.44
2023-05-09T04:53:31.620Z,71.88
2023-05-09T04:54:31.696Z,72.55
2023-05-09T04:55:31.605Z,72.55
2023-05-09T04:56:31.584Z,74.92
2023-05-09T04:57:31.610Z,75.52
2023-05-09T04:58:31.671Z,75.09
2023-05-09T04:59:31.579Z,75.12
2023-05-09T05:00:31.578Z,75.56
2023-05-09T05:01:31.609Z,73.09
2023-05-09T05:02:31.597Z,74.14
2023-05-09T05:03:31.580Z,71.73
2023-05-09T05:04:31.551Z,71.84
2023-05-09T05:05:33.674Z,73.29
2023-05-09T05:06:31.508Z,72.41
2023-05-09T05:07:31.520Z,70.83
2023-05-09T05:08:31.513Z,69.07
2023-05-09T05:09:31.521Z,67.52
2023-05-09T05:10:31.574Z,65.67
2023-05-09T05:11:31.504Z,66.52
2023-05-09T05:12:31.511Z,65.44
2023-05-09T05:13:31.483Z,63.46
2023-05-09T05:14:31.458Z,62.22
2023-05-09T05:15:31.464Z,66.12
2023-05-09T05:16:31.459Z,69.01
2023-05-09T05:17:31.490Z,67.30
2023-05-09T05:18:31.451Z,62.96
2023-05-09T05:19:31.455Z,58.97
2023-05-09T05:20:31.402Z,63.11
2023-05-09T05:21:31.448Z,63.68
2023-05-09T05:22:32.766Z,63.18
2023-05-09T05:23:31.401Z,59.72
2023-05-09T05:24:31.398Z,58.51
2023-05-09T05:25:31.426Z,58.48
2023-05-09T05:26:31.461Z,58.05
2023-05-09T05:27:31.362Z,55.96
2023-05-09T05:28:31.608Z,56.30
2023-05-09T05:29:31.351Z,56.45
2023-05-09T05:30:34.016Z,54.43
2023-05-09T05:31:31.384Z,51.04
2023-05-09T05:32:31.351Z,54.25
2023-05-09T05:33:31.308Z,52.57
2023-05-09T05:34:31.325Z,59.28
2023-05-09T05:35:31.296Z,61.17
2023-05-09T05:36:31.272Z,61.94
2023-05-09T05:37:31.307Z,62.47
2023-05-09T05:38:31.260Z,63.78
2023-05-09T05:39:31.289Z,62.34
2023-05-09T05:40:31.268Z,62.64
2023-05-09T05:41:31.251Z,60.69
2023-05-09T05:42:31.313Z,61.83
2023-05-09T05:43:31.227Z,67.99
2023-05-09T05:44:31.260Z,63.71
2023-05-09T05:45:31.301Z,62.46
2023-05-09T05:46:31.230Z,67.72
2023-05-09T05:47:31.252Z,68.94
2023-05-09T05:48:31.253Z,68.21
2023-05-09T05:49:31.218Z,65.08
2023-05-09T05:50:31.217Z,63.73
2023-05-09T05:51:31.196Z,64.24
2023-05-09T05:52:31.181Z,63.67
2023-05-09T05:53:32.684Z,61.75
2023-05-09T05:54:31.146Z,64.53
2023-05-09T05:55:31.155Z,65.27
2023-05-09T05:56:31.134Z,62.93
2023-05-09T05:57:31.176Z,58.14
2023-05-09T05:58:31.208Z,58.06
2023-05-09T05:59:31.198Z,58.39
2023-05-09T06:00:31.076Z,58.23
2023-05-09T06:01:31.106Z,60.10
2023-05-09T06:02:31.339Z,58.39
2023-05-09T06:03:31.295Z,60.69
2023-05-09T06:04:31.059Z,63.51
2023-05-09T06:05:31.066Z,63.01
2023-05-09T06:06:31.067Z,62.69
2023-05-09T06:07:31.042Z,65.69
2023-05-09T06:08:31.062Z,66.74
2023-05-09T06:09:31.054Z,63.48
2023-05-09T06:10:30.999Z,59.88
2023-05-09T06:11:31.008Z,58.38
2023-05-09T06:12:31.019Z,56.64
2023-05-09T06:13:31.008Z,59.63
2023-05-09T06:14:31.058Z,60.49
2023-05-09T06:15:31.004Z,63.12
2023-05-09T06:16:31.037Z,62.68
2023-05-09T06:17:30.973Z,60.72
2023-05-09T06:18:30.931Z,61.83
2023-05-09T06:19:30.993Z,59.88
2023-05-09T06:20:30.926Z,57.98
2023-05-09T06:21:30.924Z,55.94
2023-05-09T06:22:30.929Z,55.43
2023-05-09T06:23:30.904Z,57.83
2023-05-09T06:24:35.835Z,55.11
2023-05-09T06:25:31.913Z,54.85
2023-05-09T06:26:30.867Z,57.82
2023-05-09T06:27:30.904Z,56.99
2023-05-09T06:28:30.884Z,54.55
2023-05-09T06:29:30.887Z,54.48
2023-05-09T06:30:30.929Z,54.22
2023-05-09T06:31:30.930Z,51.62
2023-05-09T06:32:30.893Z,50.59
2023-05-09T06:33:30.832Z,53.57
2023-05-09T06:34:30.840Z,51.49
2023-05-09T06:35:30.815Z,53.19
2023-05-09T06:36:30.840Z,50.63
2023-05-09T06:37:30.806Z,52.64
2023-05-09T06:38:30.801Z,53.05
2023-05-09T06:39:30.828Z,52.92
2023-05-09T06:40:30.782Z,54.00
2023-05-09T06:41:30.799Z,49.24
2023-05-09T06:42:30.752Z,49.22
2023-05-09T06:43:30.759Z,50.59
2023-05-09T06:44:30.731Z,50.62
2023-05-09T06:45:30.771Z,49.29
2023-05-09T06:46:30.899Z,48.47
2023-05-09T06:47:30.766Z,50.54
2023-05-09T06:48:30.713Z,51.79
2023-05-09T06:49:30.761Z,49.41
2023-05-09T06:50:32.835Z,48.57
2023-05-09T06:51:30.704Z,50.24
2023-05-09T06:52:30.683Z,48.65
2023-05-09T06:53:30.690Z,48.20
2023-05-09T06:54:30.691Z,48.60
2023-05-09T06:55:30.673Z,47.14
2023-05-09T06:56:30.659Z,46.72
2023-05-09T06:57:30.673Z,46.88
2023-05-09T06:58:30.643Z,48.65
2023-05-09T06:59:30.687Z,50.72
2023-05-09T07:00:30.639Z,51.74
2023-05-09T07:01:30.655Z,49.15
2023-05-09T07:02:30.750Z,48.77
2023-05-09T07:03:30.641Z,51.46
2023-05-09T07:04:30.606Z,49.37
2023-05-09T07:05:30.632Z,49.25
2023-05-09T07:06:30.587Z,48.67
2023-05-09T07:07:30.604Z,48.72
2023-05-09T07:08:30.634Z,48.63
2023-05-09T07:09:30.589Z,46.54
2023-05-09T07:10:30.568Z,45.50
2023-05-09T07:11:30.568Z,45.72
2023-05-09T07:12:30.541Z,46.43
2023-05-09T07:13:30.594Z,48.99
2023-05-09T07:14:30.546Z,51.42
2023-05-09T07:15:41.103Z,51.84
2023-05-09T07:16:31.589Z,50.96
2023-05-09T07:17:30.562Z,49.07
2023-05-09T07:18:30.615Z,49.05
2023-05-09T07:19:30.554Z,48.63
2023-05-09T07:20:30.489Z,48.28
2023-05-09T07:21:30.504Z,46.56
2023-05-09T07:22:32.140Z,46.46
2023-05-09T07:23:30.510Z,48.08
2023-05-09T07:24:30.463Z,50.82
2023-05-09T07:25:30.479Z,51.74
2023-05-09T07:26:30.485Z,54.77
2023-05-09T07:27:30.475Z,53.55
2023-05-09T07:28:30.501Z,51.67
2023-05-09T07:29:30.453Z,51.25
2023-05-09T07:30:30.449Z,49.72
2023-05-09T07:31:30.445Z,46.84
2023-05-09T07:32:30.460Z,45.55
2023-05-09T07:33:30.427Z,42.49
2023-05-09T07:34:30.562Z,43.06
2023-05-09T07:35:30.425Z,41.97
2023-05-09T07:36:30.477Z,44.44
2023-05-09T07:37:30.407Z,48.14
2023-05-09T07:38:30.372Z,49.47
2023-05-09T07:39:30.401Z,48.78
2023-05-09T07:40:30.369Z,48.21
2023-05-09T07:41:30.371Z,46.81
2023-05-09T07:42:30.423Z,46.94
2023-05-09T07:43:30.348Z,46.84
2023-05-09T07:44:30.341Z,43.06
2023-05-09T07:45:30.377Z,44.32
2023-05-09T07:46:30.392Z,47.98
2023-05-09T07:47:30.361Z,48.03
2023-05-09T07:48:30.321Z,46.35
2023-05-09T07:49:30.324Z,43.06
2023-05-09T07:50:31.050Z,41.44
2023-05-09T07:51:30.303Z,44.52
2023-05-09T07:52:30.306Z,47.44
2023-05-09T07:53:30.302Z,48.94
2023-05-09T07:54:30.259Z,52.64
2023-05-09T07:55:30.279Z,51.82
2023-05-09T07:56:30.258Z,48.63
2023-05-09T07:57:30.264Z,48.68
2023-05-09T07:58:30.268Z,48.46
2023-05-09T07:59:30.253Z,47.30
2023-05-09T08:00:31.049Z,48.67
2023-05-09T08:01:30.241Z,51.34
2023-05-09T08:02:30.283Z,52.29
2023-05-09T08:03:30.304Z,49.97
2023-05-09T08:04:30.259Z,50.67
2023-05-09T08:05:30.208Z,52.57
2023-05-09T08:06:30.278Z,53.17
2023-05-09T08:07:30.222Z,50.89
2023-05-09T08:08:30.188Z,49.44
2023-05-09T08:09:30.179Z,50.27
2023-05-09T08:10:30.158Z,50.89
2023-05-09T08:11:30.189Z,51.34
2023-05-09T08:12:30.139Z,51.14
2023-05-09T08:13:30.238Z,50.72
2023-05-09T08:14:30.124Z,50.29
2023-05-09T08:15:30.147Z,50.29
2023-05-09T08:16:30.263Z,49.09
2023-05-09T08:17:30.197Z,50.94
2023-05-09T08:18:30.095Z,52.97
2023-05-09T08:19:30.126Z,52.59
2023-05-09T08:20:30.081Z,51.77
2023-05-09T08:21:30.102Z,53.30
2023-05-09T08:22:30.167Z,53.80
2023-05-09T08:23:30.091Z,52.07
2023-05-09T08:24:30.069Z,52.17
2023-05-09T08:25:30.212Z,51.94
2023-05-09T08:26:30.045Z,53.19
2023-05-09T08:27:30.057Z,54.52
2023-05-09T08:28:30.056Z,54.45
2023-05-09T08:29:30.070Z,54.52
2023-05-09T08:30:30.018Z,53.30
2023-05-09T08:31:30.116Z,54.25
2023-05-09T08:32:30.045Z,54.55
2023-05-09T08:33:30.015Z,53.22
2023-05-09T08:34:29.992Z,54.12
2023-05-09T08:35:30.041Z,54.20
2023-05-09T08:36:29.989Z,53.82
2023-05-09T08:37:30.029Z,53.80
2023-05-09T08:38:30.052Z,53.27
2023-05-09T08:39:30.032Z,52.07
2023-05-09T08:40:29.982Z,53.59
2023-05-09T08:41:29.963Z,54.00
2023-05-09T08:42:29.942Z,53.17
2023-05-09T08:43:29.948Z,53.55
2023-05-09T08:44:29.932Z,51.12
2023-05-09T08:45:30.038Z,51.29
2023-05-09T08:46:29.987Z,51.42
2023-05-09T08:47:29.963Z,50.70
2023-05-09T08:48:29.922Z,51.17
2023-05-09T08:49:29.938Z,50.60
2023-05-09T08:50:29.902Z,48.97
2023-05-09T08:51:29.905Z,48.43
2023-05-09T08:52:29.910Z,48.58
2023-05-09T08:53:29.915Z,48.78
2023-05-09T08:54:29.983Z,48.33
2023-05-09T08:55:29.881Z,46.77
2023-05-09T08:56:29.837Z,45.36
2023-05-09T08:57:29.852Z,45.85
2023-05-09T08:58:29.824Z,45.53
2023-05-09T08:59:29.856Z,45.15
2023-05-09T09:00:29.812Z,45.11
2023-05-09T09:01:29.861Z,44.64
2023-05-09T09:02:29.893Z,46.42
2023-05-09T09:03:29.843Z,48.97
2023-05-09T09:04:29.839Z,51.94
2023-05-09T09:06:29.798Z,53.49
2023-05-09T09:07:31.171Z,52.92
2023-05-09T09:08:29.778Z,53.02
2023-05-09T09:09:29.765Z,53.12
2023-05-09T09:10:29.905Z,53.24
2023-05-09T09:11:29.766Z,53.97
2023-05-09T09:12:29.733Z,54.70
2023-05-09T09:13:29.826Z,52.49
2023-05-09T09:14:29.720Z,54.10
2023-05-09T09:15:29.753Z,53.17
2023-05-09T09:16:29.752Z,51.32
2023-05-09T09:17:29.741Z,51.79
2023-05-09T09:18:29.686Z,49.67
2023-05-09T09:19:29.704Z,49.67
2023-05-09T09:20:29.692Z,50.67
2023-05-09T09:21:29.703Z,50.07
2023-05-09T09:22:29.666Z,49.17
2023-05-09T09:23:29.683Z,49.57
2023-05-09T09:24:29.652Z,48.97
2023-05-09T09:25:29.679Z,48.57
2023-05-09T09:26:29.731Z,49.17
2023-05-09T09:27:29.636Z,49.47
2023-05-09T09:28:29.681Z,49.27
2023-05-09T09:29:29.637Z,51.20
2023-05-09T09:30:29.596Z,50.94
2023-05-09T09:31:29.618Z,50.62
2023-05-09T09:32:29.603Z,49.47
2023-05-09T09:33:29.639Z,48.45
2023-05-09T09:34:29.577Z,49.12
2023-05-09T09:35:29.597Z,49.32
2023-05-09T09:36:29.575Z,48.82
2023-05-09T09:37:29.593Z,47.58
2023-05-09T09:38:29.541Z,46.88
2023-05-09T09:39:29.572Z,48.38
2023-05-09T09:40:29.544Z,46.53
2023-05-09T09:41:29.576Z,48.69
2023-05-09T09:42:29.656Z,49.11
2023-05-09T09:43:29.560Z,50.34
2023-05-09T09:44:29.502Z,49.41
2023-05-09T09:45:29.512Z,48.90
2023-05-09T09:46:29.520Z,49.40
2023-05-09T09:47:29.517Z,48.87
2023-05-09T09:48:29.497Z,48.14
2023-05-09T09:49:29.492Z,47.69
2023-05-09T09:50:29.468Z,48.60
2023-05-09T09:51:29.463Z,48.65
2023-05-09T09:52:29.454Z,47.03
2023-05-09T09:53:29.487Z,46.68
2023-05-09T09:54:29.476Z,47.08
2023-05-09T09:55:29.444Z,46.62
2023-05-09T09:56:29.429Z,46.19
2023-05-09T09:57:29.442Z,46.36
2023-05-09T09:58:29.532Z,46.88
2023-05-09T09:59:29.451Z,46.50
2023-05-09T10:00:29.392Z,47.05
2023-05-09T10:01:29.481Z,47.05
2023-05-09T10:02:29.384Z,47.85
2023-05-09T10:03:29.416Z,48.92
2023-05-09T10:04:29.352Z,48.82
2023-05-09T10:05:29.404Z,47.42
2023-05-09T10:06:29.343Z,48.69
2023-05-09T10:07:29.369Z,48.27
2023-05-09T10:08:29.351Z,48.75
2023-05-09T10:09:29.353Z,47.63
2023-05-09T10:10:29.314Z,49.07
2023-05-09T10:11:29.360Z,49.11
2023-05-09T10:12:29.313Z,48.84
2023-05-09T10:13:29.378Z,50.96
2023-05-09T10:14:29.375Z,49.96
2023-05-09T10:15:33.459Z,49.46
2023-05-09T10:16:40.135Z,51.01
2023-05-09T10:17:30.430Z,54.40
2023-05-09T10:18:29.511Z,51.64
2023-05-09T10:19:29.275Z,51.89
2023-05-09T10:20:29.246Z,50.87
2023-05-09T10:21:29.285Z,51.84
2023-05-09T10:22:29.239Z,51.32
2023-05-09T10:23:29.238Z,51.37
2023-05-09T10:24:29.224Z,48.13
2023-05-09T10:25:29.225Z,48.35
2023-05-09T10:26:29.251Z,47.89
2023-05-09T10:27:29.234Z,48.94
2023-05-09T10:28:29.186Z,52.67
2023-05-09T10:29:29.229Z,53.14
2023-05-09T10:30:29.383Z,52.09
2023-05-09T10:31:29.530Z,50.87
2023-05-09T10:32:29.162Z,49.40
2023-05-09T10:33:29.173Z,49.29
2023-05-09T10:34:29.174Z,50.47
2023-05-09T10:35:29.161Z,48.63
2023-05-09T10:36:29.138Z,49.05
2023-05-09T10:37:29.584Z,49.67
2023-05-09T10:38:29.131Z,50.70
2023-05-09T10:39:29.171Z,50.39
2023-05-09T10:40:29.097Z,50.62
2023-05-09T10:41:29.106Z,51.09
2023-05-09T10:42:29.094Z,50.52
2023-05-09T10:43:29.467Z,49.98
2023-05-09T10:44:29.081Z,48.43
2023-05-09T10:45:29.116Z,49.33
2023-05-09T10:46:29.188Z,47.98
2023-05-09T10:47:29.116Z,47.08
2023-05-09T10:48:29.046Z,48.08
2023-05-09T10:49:29.051Z,48.10
2023-05-09T10:50:29.021Z,49.68
2023-05-09T10:51:29.097Z,49.23
2023-05-09T10:52:29.014Z,46.37
2023-05-09T10:53:29.033Z,48.16
2023-05-09T10:54:30.899Z,47.74
2023-05-09T10:55:29.022Z,50.59
2023-05-09T10:56:29.014Z,53.87
2023-05-09T10:57:29.032Z,53.17
2023-05-09T10:58:28.987Z,52.67
2023-05-09T10:59:28.988Z,52.37
2023-05-09T11:00:28.967Z,50.72
2023-05-09T11:01:29.025Z,51.79
2023-05-09T11:02:29.137Z,50.72
2023-05-09T11:03:29.042Z,49.30
2023-05-09T11:04:28.980Z,48.63
2023-05-09T11:05:28.970Z,45.37
2023-05-09T11:06:28.940Z,46.47
2023-05-09T11:07:28.932Z,46.45
2023-05-09T11:08:28.935Z,44.32
2023-05-09T11:09:28.948Z,46.94
2023-05-09T11:10:28.890Z,47.02
2023-05-09T11:11:28.918Z,45.20
2023-05-09T11:12:28.888Z,45.10
2023-05-09T11:13:28.928Z,47.91
2023-05-09T11:14:28.881Z,46.47
2023-05-09T11:15:28.895Z,46.57
2023-05-09T11:16:28.907Z,47.44
2023-05-09T11:17:28.901Z,47.71
2023-05-09T11:18:28.933Z,47.34
2023-05-09T11:19:28.848Z,46.65
2023-05-09T11:20:28.824Z,45.53
2023-05-09T11:21:28.856Z,45.79
2023-05-09T11:22:28.838Z,44.49
2023-05-09T11:23:28.826Z,44.98
2023-05-09T11:24:28.803Z,46.76
2023-05-09T11:25:28.848Z,48.52
2023-05-09T11:26:28.796Z,49.42
2023-05-09T11:27:28.798Z,49.42
2023-05-09T11:28:28.822Z,50.47
2023-05-09T11:29:28.804Z,46.42
2023-05-09T11:30:28.787Z,47.51
2023-05-09T11:31:28.806Z,47.14
2023-05-09T11:32:28.791Z,48.05
2023-05-09T11:33:28.808Z,47.63
2023-05-09T11:34:28.843Z,46.84
2023-05-09T11:35:28.807Z,48.43
2023-05-09T11:36:28.727Z,48.30
2023-05-09T11:37:28.732Z,47.16
2023-05-09T11:38:28.715Z,47.09
2023-05-09T11:39:28.717Z,47.26
2023-05-09T11:40:28.709Z,47.86
2023-05-09T11:41:28.755Z,45.50
2023-05-09T11:42:28.679Z,45.06
2023-05-09T11:43:28.692Z,45.71
2023-05-09T11:44:28.689Z,42.99
2023-05-09T11:45:28.714Z,42.77
2023-05-09T11:46:28.700Z,42.33
2023-05-09T11:47:28.737Z,43.30
2023-05-09T11:48:28.655Z,42.49
2023-05-09T11:49:28.642Z,41.08
2023-05-09T11:50:28.723Z,39.73
2023-05-09T11:51:28.635Z,39.73
2023-05-09T11:52:28.620Z,40.12
2023-05-09T11:53:28.640Z,39.28
2023-05-09T11:54:28.606Z,40.44
2023-05-09T11:55:28.636Z,41.83
2023-05-09T11:56:28.602Z,41.12
2023-05-09T11:57:28.590Z,40.30
2023-05-09T11:58:28.567Z,40.03
2023-05-09T11:59:28.573Z,39.73
2023-05-09T12:00:28.575Z,39.61
2023-05-09T12:01:28.585Z,39.29
2023-05-09T12:02:28.608Z,39.19
2023-05-09T12:03:28.772Z,39.15
2023-05-09T12:04:28.555Z,41.08
2023-05-09T12:05:28.556Z,43.99
2023-05-09T12:06:28.617Z,43.97
2023-05-09T12:07:28.522Z,42.01
2023-05-09T12:08:28.534Z,40.88
2023-05-09T12:09:28.527Z,41.04
2023-05-09T12:10:28.498Z,41.04
2023-05-09T12:11:28.510Z,40.06
2023-05-09T12:12:28.500Z,41.28
2023-05-09T12:13:28.539Z,39.65
2023-05-09T12:14:28.480Z,41.16
2023-05-09T12:15:28.465Z,41.25
2023-05-09T12:16:28.501Z,40.34
2023-05-09T12:17:28.466Z,41.34
2023-05-09T12:18:28.449Z,40.52
2023-05-09T12:19:28.475Z,39.53
2023-05-09T12:20:28.424Z,40.03
2023-05-09T12:21:28.434Z,40.12
2023-05-09T12:22:28.497Z,40.34
2023-05-09T12:23:28.434Z,39.84
2023-05-09T12:24:28.399Z,40.56
2023-05-09T12:25:28.435Z,40.14
2023-05-09T12:26:28.382Z,40.58
2023-05-09T12:27:28.396Z,41.71
2023-05-09T12:28:28.354Z,41.02
2023-05-09T12:29:28.367Z,42.05
2023-05-09T12:30:28.363Z,42.21
2023-05-09T12:31:28.373Z,41.39
2023-05-09T12:32:28.372Z,39.17
2023-05-09T12:33:28.343Z,39.17
2023-05-09T12:34:28.326Z,40.36
2023-05-09T12:35:28.363Z,40.03
2023-05-09T12:36:28.325Z,39.00
2023-05-09T12:37:28.309Z,40.56
2023-05-09T12:38:28.387Z,40.54
2023-05-09T12:39:28.306Z,43.49
2023-05-09T12:40:28.306Z,42.13
2023-05-09T12:41:37.145Z,40.78
2023-05-09T12:42:29.274Z,38.56
2023-05-09T12:43:28.289Z,39.17
2023-05-09T12:44:28.256Z,39.67
2023-05-09T12:45:28.262Z,38.79
2023-05-09T12:46:28.291Z,39.53
2023-05-09T12:47:28.306Z,40.76
2023-05-09T12:48:28.227Z,38.95
2023-05-09T12:49:28.230Z,39.73
2023-05-09T12:50:28.213Z,38.62
2023-05-09T12:51:28.220Z,38.30
2023-05-09T12:52:28.273Z,37.98
2023-05-09T12:53:28.228Z,38.58